Hornell, New York
Current Conditions -  °F | °C
As of 2:54 PM on Sunday 23 Nov 2014 (Local Time) from KDSV Reporting Station
Few Clouds Few Clouds  
Wind Chill: 53°   Ceiling: Unl
Heat Index: 53°   Visibility: 10mi
Dew Point: 39°   Wind: 8mph
Humidity: 59%   Direction: 130°SE
Pressure: 29.96"   Gusts: NA
Location:  42.33°N, 77.66°W
Report Text: KDSV 231954Z AUTO 13007KT 10SM FEW090 12/04 A2996 RMK AO2 SLP156 T01170039
Loading
Personal Weather Stations






























Interactive Weather Map New forecast layout! Learn more

10-Day Weather Forecast

Advertisements
Track Severe Weather on mobile